Time;durP1;ratioP1;P1;durP2;ratioP2;P2;SDS_P1;SDS_P2;PMS_P1;PMS_P2;Temp;Humidity;BMP_temperature;BMP_pressure;BME280_temperature;BME280_humidity;BME280_pressure;Samples;Min_cycle;Max_cycle;Signal;HPM_P1;HPM_P2
2022/04/26 03:37:29;;;;;;;9.57;5.78;;;;;;;;;;4904650;29;20047;-73
2022/04/26 03:39:55;;;;;;;10.82;5.40;;;;;;;;;;4923622;29;20116;-74
2022/04/26 03:42:21;;;;;;;10.45;4.70;;;;;;;;;;4923914;29;20031;-76
2022/04/26 03:44:47;;;;;;;7.40;4.43;;;;;;;;;;4921351;29;20028;-73
2022/04/26 03:47:13;;;;;;;8.80;4.47;;;;;;;;;;4920870;29;20043;-72
2022/04/26 03:49:40;;;;;;;6.40;4.15;;;;;;;;;;4921279;29;20042;-74
2022/04/26 03:52:06;;;;;;;9.15;3.83;;;;;;;;;;4921135;29;20032;-72
2022/04/26 03:54:32;;;;;;;14.00;4.60;;;;;;;;;;4922510;29;20048;-73
2022/04/26 03:56:58;;;;;;;7.93;4.38;;;;;;;;;;4924076;29;20031;-76
2022/04/26 03:59:24;;;;;;;10.27;5.13;;;;;;;;;;4924192;29;20039;-73
2022/04/26 04:01:50;;;;;;;8.13;4.05;;;;;;;;;;4922272;29;20076;-75
2022/04/26 04:04:16;;;;;;;10.50;4.03;;;;;;;;;;4921947;29;20163;-73
2022/04/26 04:06:42;;;;;;;12.80;4.53;;;;;;;;;;4905102;29;20036;-73
2022/04/26 04:09:08;;;;;;;10.80;4.47;;;;;;;;;;4920903;29;20032;-72
2022/04/26 04:11:34;;;;;;;9.13;4.82;;;;;;;;;;4919786;29;20073;-72
2022/04/26 04:14:00;;;;;;;9.07;5.07;;;;;;;;;;4930092;29;20028;-73
2022/04/26 04:16:26;;;;;;;8.68;5.00;;;;;;;;;;4920157;29;20506;-74
2022/04/26 04:21:39;;;;;;;13.57;5.68;;;;;;;;;;4922361;29;20042;-74
2022/04/26 04:24:05;;;;;;;10.73;5.45;;;;;;;;;;4922156;29;20039;-76
2022/04/26 04:26:36;;;;;;;12.98;6.07;;;;;;;;;;4921664;29;20103;-75
2022/04/26 04:29:02;;;;;;;15.57;5.88;;;;;;;;;;4919442;29;20022;-73
2022/04/26 04:31:29;;;;;;;11.85;6.28;;;;;;;;;;4919193;29;20028;-73
2022/04/26 04:33:55;;;;;;;15.70;7.07;;;;;;;;;;4918490;29;20029;-72
2022/04/26 04:36:21;;;;;;;13.55;7.25;;;;;;;;;;4921255;29;20111;-75
2022/04/26 04:38:47;;;;;;;14.27;8.15;;;;;;;;;;4920692;29;20044;-74
2022/04/26 04:41:13;;;;;;;17.60;8.32;;;;;;;;;;4922230;29;20020;-74
2022/04/26 04:43:39;;;;;;;11.25;8.18;;;;;;;;;;4920539;29;20418;-74
2022/04/26 04:46:05;;;;;;;12.07;8.65;;;;;;;;;;4918441;29;20689;-76
2022/04/26 04:48:31;;;;;;;17.60;9.30;;;;;;;;;;4920270;29;20047;-72
2022/04/26 04:50:57;;;;;;;12.80;9.52;;;;;;;;;;4923112;29;20028;-72
2022/04/26 04:53:23;;;;;;;13.75;9.38;;;;;;;;;;4930327;29;20036;-74
2022/04/26 04:55:49;;;;;;;14.88;9.18;;;;;;;;;;4903276;29;20091;-72
2022/04/26 04:58:15;;;;;;;13.73;9.25;;;;;;;;;;4921618;29;20020;-73
2022/04/26 05:00:41;;;;;;;14.27;9.30;;;;;;;;;;4906596;29;20091;-73
2022/04/26 05:03:07;;;;;;;19.08;10.35;;;;;;;;;;4923814;29;20028;-73
2022/04/26 05:05:33;;;;;;;12.98;9.80;;;;;;;;;;4930271;29;20035;-74
2022/04/26 05:07:59;;;;;;;19.40;10.70;;;;;;;;;;4921526;29;20040;-73
2022/04/26 05:10:26;;;;;;;13.48;9.70;;;;;;;;;;4922912;29;20035;-75
2022/04/26 05:12:52;;;;;;;14.35;9.55;;;;;;;;;;4939004;29;20099;-77
2022/04/26 05:15:18;;;;;;;12.93;9.65;;;;;;;;;;4921754;29;20381;-73
2022/04/26 05:17:44;;;;;;;13.40;9.55;;;;;;;;;;4914621;29;20052;-77
2022/04/26 05:20:11;;;;;;;20.23;9.75;;;;;;;;;;4940418;29;20079;-73
2022/04/26 05:25:24;;;;;;;15.02;9.85;;;;;;;;;;4923405;29;20048;-73
2022/04/26 05:27:50;;;;;;;12.77;9.27;;;;;;;;;;4920489;29;20032;-75
2022/04/26 05:30:16;;;;;;;13.70;9.25;;;;;;;;;;4923113;29;20032;-73
2022/04/26 05:32:42;;;;;;;13.50;8.88;;;;;;;;;;4932448;29;20087;-75
2022/04/26 05:35:11;;;;;;;11.88;9.20;;;;;;;;;;4919926;29;20038;-74
2022/04/26 05:37:38;;;;;;;11.25;8.43;;;;;;;;;;4921468;29;20032;-73
2022/04/26 05:40:04;;;;;;;10.68;8.43;;;;;;;;;;4923011;29;20521;-74
2022/04/26 05:42:30;;;;;;;12.43;8.40;;;;;;;;;;4917221;29;20478;-75
2022/04/26 05:44:57;;;;;;;16.10;8.85;;;;;;;;;;4910086;29;20043;-73
2022/04/26 05:47:23;;;;;;;11.32;7.93;;;;;;;;;;4902909;29;20399;-74
2022/04/26 05:49:49;;;;;;;15.95;8.95;;;;;;;;;;4919986;29;20031;-78
2022/04/26 05:52:15;;;;;;;9.15;7.72;;;;;;;;;;4916609;29;20032;-74
2022/04/26 05:54:41;;;;;;;10.38;7.75;;;;;;;;;;4928953;29;20039;-75
2022/04/26 05:57:07;;;;;;;9.77;8.20;;;;;;;;;;4925988;29;20050;-78
2022/04/26 05:59:34;;;;;;;13.18;8.45;;;;;;;;;;4916540;29;20040;-75
2022/04/26 06:02:01;;;;;;;10.30;8.43;;;;;;;;;;4912296;29;20501;-81
2022/04/26 06:04:27;;;;;;;10.25;8.02;;;;;;;;;;4911028;29;20665;-73
2022/04/26 06:06:53;;;;;;;13.50;8.68;;;;;;;;;;4910410;29;20035;-81
2022/04/26 06:09:20;;;;;;;13.88;7.78;;;;;;;;;;4895282;29;20083;-90
2022/04/26 06:11:46;;;;;;;11.57;8.68;;;;;;;;;;4901086;29;20059;-76
2022/04/26 06:14:12;;;;;;;12.93;8.27;;;;;;;;;;4914801;29;20024;-76
2022/04/26 06:16:40;;;;;;;14.43;8.38;;;;;;;;;;4914481;29;20048;-75
2022/04/26 06:19:06;;;;;;;10.02;7.38;;;;;;;;;;4916352;29;20091;-75
2022/04/26 06:21:32;;;;;;;17.73;8.25;;;;;;;;;;4915717;29;20020;-75
2022/04/26 06:23:59;;;;;;;14.20;7.55;;;;;;;;;;4916101;29;20050;-88
2022/04/26 06:26:25;;;;;;;8.10;6.70;;;;;;;;;;4900046;29;20030;-88
2022/04/26 06:28:51;;;;;;;11.52;6.82;;;;;;;;;;4899579;29;20028;-87
2022/04/26 06:31:17;;;;;;;13.48;7.38;;;;;;;;;;4899715;29;20030;-87
2022/04/26 06:33:46;;;;;;;8.18;6.88;;;;;;;;;;4900323;29;20489;-86
2022/04/26 06:36:12;;;;;;;9.93;6.68;;;;;;;;;;4903839;29;20637;-88
2022/04/26 06:38:38;;;;;;;17.10;8.20;;;;;;;;;;4898763;29;20510;-73
2022/04/26 06:41:05;;;;;;;11.63;7.82;;;;;;;;;;4911237;29;20028;-72
2022/04/26 06:43:33;;;;;;;11.50;6.90;;;;;;;;;;4913290;29;20027;-75
2022/04/26 06:46:00;;;;;;;12.75;7.10;;;;;;;;;;4913693;29;20032;-73
2022/04/26 06:48:26;;;;;;;11.95;7.22;;;;;;;;;;4915117;29;20042;-87
2022/04/26 06:50:54;;;;;;;10.35;7.30;;;;;;;;;;4916545;29;20402;-76
2022/04/26 06:53:22;;;;;;;8.35;6.05;;;;;;;;;;4896771;29;20036;-89
2022/04/26 06:55:49;;;;;;;12.18;7.03;;;;;;;;;;4916144;29;20099;-89
2022/04/26 06:58:15;;;;;;;8.88;6.55;;;;;;;;;;4896320;29;20051;-85
2022/04/26 07:00:41;;;;;;;7.47;6.03;;;;;;;;;;4915452;29;20040;-87
2022/04/26 07:03:07;;;;;;;10.27;6.85;;;;;;;;;;4902932;29;20376;-84
2022/04/26 07:05:34;;;;;;;12.00;7.20;;;;;;;;;;4896276;29;20024;-88
2022/04/26 07:08:00;;;;;;;9.65;6.43;;;;;;;;;;4903920;29;20035;-82
2022/04/26 07:10:31;;;;;;;24.10;10.65;;;;;;;;;;4921734;29;20394;-83
2022/04/26 07:12:57;;;;;;;11.27;7.03;;;;;;;;;;4916100;29;20027;-81
2022/04/26 07:15:24;;;;;;;8.45;5.93;;;;;;;;;;4914886;29;20170;-80
2022/04/26 07:17:50;;;;;;;8.38;6.63;;;;;;;;;;4920336;29;20097;-83
2022/04/26 07:20:16;;;;;;;10.05;6.45;;;;;;;;;;4926194;29;20115;-83
2022/04/26 07:22:42;;;;;;;8.73;6.18;;;;;;;;;;4915062;29;20162;-85
2022/04/26 07:25:09;;;;;;;11.40;6.30;;;;;;;;;;4897691;29;20393;-76
2022/04/26 07:27:36;;;;;;;10.02;6.47;;;;;;;;;;4917707;29;20028;-81
2022/04/26 07:30:02;;;;;;;8.27;6.00;;;;;;;;;;4899257;29;20032;-84
2022/04/26 07:35:18;;;;;;;11.57;6.22;;;;;;;;;;4917388;29;20038;-84
2022/04/26 07:37:44;;;;;;;15.77;6.57;;;;;;;;;;4897160;29;20063;-84
2022/04/26 07:40:10;;;;;;;10.65;6.05;;;;;;;;;;4922150;29;20028;-83
2022/04/26 07:42:36;;;;;;;8.93;5.50;;;;;;;;;;4923678;29;20111;-81
2022/04/26 07:45:03;;;;;;;27.95;7.95;;;;;;;;;;4924715;29;20083;-86
2022/04/26 07:47:30;;;;;;;10.65;5.72;;;;;;;;;;4911224;29;20032;-83
2022/04/26 07:49:57;;;;;;;27.23;8.07;;;;;;;;;;4907546;29;20024;-88
2022/04/26 07:52:23;;;;;;;9.57;5.78;;;;;;;;;;4910266;29;20028;-85
2022/04/26 07:54:50;;;;;;;10.45;6.03;;;;;;;;;;4903257;29;20049;-78
2022/04/26 07:57:16;;;;;;;10.30;5.43;;;;;;;;;;4902542;29;20469;-77
2022/04/26 07:59:42;;;;;;;8.82;5.70;;;;;;;;;;4929520;29;20040;-86
2022/04/26 08:02:11;;;;;;;10.07;5.82;;;;;;;;;;4902639;29;20613;-87
2022/04/26 08:04:38;;;;;;;9.90;5.68;;;;;;;;;;4899985;29;20044;-84
2022/04/26 08:07:04;;;;;;;10.65;6.28;;;;;;;;;;4901345;29;20035;-85
2022/04/26 08:09:35;;;;;;;6.22;5.38;;;;;;;;;;4896947;29;20024;-88
2022/04/26 08:12:01;;;;;;;10.10;6.18;;;;;;;;;;4904178;29;20031;-86
2022/04/26 08:14:27;;;;;;;14.43;6.30;;;;;;;;;;4901799;29;20113;-89
2022/04/26 08:16:54;;;;;;;12.35;6.03;;;;;;;;;;4919304;29;20105;-88
2022/04/26 08:19:20;;;;;;;9.05;5.63;;;;;;;;;;4903862;29;20147;-85
2022/04/26 08:21:46;;;;;;;12.40;6.13;;;;;;;;;;4902939;29;20031;-86
2022/04/26 08:29:42;;;;;;;11.05;6.10;;;;;;;;;;4922261;29;20031;-90
2022/04/26 08:32:08;;;;;;;9.43;5.80;;;;;;;;;;4902544;29;21745;-92
2022/04/26 08:34:34;;;;;;;9.25;5.50;;;;;;;;;;4905708;29;20020;-78
2022/04/26 08:37:00;;;;;;;10.57;5.63;;;;;;;;;;4914745;29;20111;-83
2022/04/26 08:39:26;;;;;;;13.68;6.05;;;;;;;;;;4918735;29;20093;-78
2022/04/26 08:42:00;;;;;;;8.45;6.65;;;;;;;;;;4919108;29;20020;-79
2022/04/26 08:44:27;;;;;;;8.23;5.80;;;;;;;;;;4915667;29;20036;-84
2022/04/26 08:52:24;;;;;;;9.77;5.95;;;;;;;;;;4919049;29;20091;-83
2022/04/26 08:54:50;;;;;;;9.93;5.43;;;;;;;;;;4916043;29;20043;-86
2022/04/26 08:57:17;;;;;;;10.38;5.60;;;;;;;;;;4899468;29;20033;-86
2022/04/26 08:59:47;;;;;;;12.63;5.90;;;;;;;;;;4899358;29;20047;-84
2022/04/26 09:02:15;;;;;;;10.63;5.60;;;;;;;;;;4902994;29;20025;-82
2022/04/26 09:04:41;;;;;;;8.18;5.10;;;;;;;;;;4905821;29;20032;-84
2022/04/26 09:07:12;;;;;;;16.25;6.47;;;;;;;;;;4917140;29;20032;-84
2022/04/26 09:09:41;;;;;;;7.10;5.57;;;;;;;;;;4905093;29;20433;-85
2022/04/26 09:12:11;;;;;;;8.38;5.40;;;;;;;;;;4900011;29;20474;-82
2022/04/26 09:14:39;;;;;;;9.77;5.63;;;;;;;;;;4914600;29;20525;-78
2022/04/26 09:17:09;;;;;;;11.50;5.55;;;;;;;;;;4930375;29;20058;-85
2022/04/26 09:19:55;;;;;;;6.60;4.90;;;;;;;;;;4894331;29;20125;-86
2022/04/26 09:22:22;;;;;;;9.35;5.07;;;;;;;;;;4904332;29;20363;-80
2022/04/26 09:24:57;;;;;;;8.10;4.50;;;;;;;;;;4911409;29;20032;-84
2022/04/26 09:27:24;;;;;;;11.15;4.88;;;;;;;;;;4915469;29;20364;-74
2022/04/26 09:29:50;;;;;;;10.55;5.20;;;;;;;;;;4914803;29;20024;-74
2022/04/26 09:32:16;;;;;;;12.43;6.03;;;;;;;;;;4917348;29;20036;-86
2022/04/26 09:34:42;;;;;;;10.35;4.78;;;;;;;;;;4905592;29;20040;-77
2022/04/26 09:37:08;;;;;;;8.40;4.80;;;;;;;;;;4916517;29;20100;-74
2022/04/26 09:39:34;;;;;;;7.38;4.40;;;;;;;;;;4918199;29;20502;-78
2022/04/26 09:42:01;;;;;;;5.93;3.72;;;;;;;;;;4918814;29;20107;-76
2022/04/26 09:44:33;;;;;;;7.65;4.20;;;;;;;;;;4914606;29;20024;-81
2022/04/26 09:47:00;;;;;;;6.85;4.13;;;;;;;;;;4903787;29;20040;-78
2022/04/26 09:49:27;;;;;;;8.07;4.47;;;;;;;;;;4913868;29;20032;-87
2022/04/26 09:52:03;;;;;;;6.50;4.30;;;;;;;;;;4899461;29;20024;-87
2022/04/26 09:54:29;;;;;;;6.80;3.65;;;;;;;;;;4900254;29;20416;-78
2022/04/26 09:56:56;;;;;;;8.93;3.83;;;;;;;;;;4921468;29;20047;-82
2022/04/26 09:59:38;;;;;;;6.38;3.78;;;;;;;;;;4915603;29;20031;-84
2022/04/26 10:02:07;;;;;;;7.18;3.95;;;;;;;;;;4917474;29;20506;-86
2022/04/26 10:04:34;;;;;;;4.75;3.22;;;;;;;;;;4916202;29;20115;-82
2022/04/26 10:07:03;;;;;;;6.30;3.22;;;;;;;;;;4919715;29;20459;-85
2022/04/26 10:09:30;;;;;;;7.97;3.80;;;;;;;;;;4901530;29;20450;-77
2022/04/26 10:12:00;;;;;;;6.07;3.35;;;;;;;;;;4917094;29;20028;-78
2022/04/26 10:14:28;;;;;;;8.65;3.60;;;;;;;;;;4916842;29;20031;-84
2022/04/26 10:16:54;;;;;;;4.45;3.53;;;;;;;;;;4909848;29;20052;-87
2022/04/26 10:19:35;;;;;;;8.00;3.28;;;;;;;;;;4916724;29;20047;-82
2022/04/26 10:22:01;;;;;;;5.95;3.40;;;;;;;;;;4917076;29;20052;-86
2022/04/26 10:24:27;;;;;;;7.22;3.20;;;;;;;;;;4916804;29;20107;-85
2022/04/26 10:26:53;;;;;;;4.85;3.85;;;;;;;;;;4916814;29;20020;-85
2022/04/26 10:29:21;;;;;;;7.90;2.92;;;;;;;;;;4917012;29;20028;-86
2022/04/26 10:31:48;;;;;;;8.80;3.58;;;;;;;;;;4916511;29;20024;-81
2022/04/26 10:34:20;;;;;;;5.70;3.33;;;;;;;;;;4916470;29;20115;-84
2022/04/26 10:36:49;;;;;;;4.53;2.65;;;;;;;;;;4916544;29;20435;-85
2022/04/26 10:39:18;;;;;;;7.25;2.95;;;;;;;;;;4916159;29;20509;-81
2022/04/26 10:41:48;;;;;;;6.82;2.90;;;;;;;;;;4926515;29;20084;-85
2022/04/26 10:44:14;;;;;;;5.43;3.33;;;;;;;;;;4916669;29;20036;-84
2022/04/26 10:46:40;;;;;;;5.25;3.42;;;;;;;;;;4916350;29;20112;-83
2022/04/26 10:49:38;;;;;;;5.15;3.30;;;;;;;;;;4916638;29;20115;-83
2022/04/26 10:52:25;;;;;;;4.65;3.38;;;;;;;;;;4892197;29;20044;-83
2022/04/26 10:55:03;;;;;;;7.68;3.22;;;;;;;;;;4898013;29;20077;-79
2022/04/26 10:57:40;;;;;;;9.50;3.75;;;;;;;;;;4900437;29;20020;-84
2022/04/26 11:00:13;;;;;;;4.80;3.10;;;;;;;;;;4904633;29;20159;-81
2022/04/26 11:02:41;;;;;;;9.23;3.47;;;;;;;;;;4900168;29;20029;-80
2022/04/26 11:05:09;;;;;;;9.77;3.30;;;;;;;;;;4900652;29;20035;-85
2022/04/26 11:07:35;;;;;;;6.22;3.47;;;;;;;;;;4897987;29;20507;-87
2022/04/26 11:10:02;;;;;;;6.90;3.20;;;;;;;;;;4898882;29;20024;-85
2022/04/26 11:12:29;;;;;;;7.75;3.42;;;;;;;;;;4901366;29;20068;-84
2022/04/26 11:14:56;;;;;;;11.02;2.67;;;;;;;;;;4902320;29;20522;-86
2022/04/26 11:17:23;;;;;;;7.47;2.70;;;;;;;;;;4903092;29;20080;-84
2022/04/26 11:19:56;;;;;;;5.10;2.67;;;;;;;;;;4900148;29;20036;-81
2022/04/26 11:22:22;;;;;;;4.35;2.30;;;;;;;;;;4883752;29;20044;-86
2022/04/26 11:30:43;;;;;;;6.68;2.90;;;;;;;;;;4903015;29;20522;-81
2022/04/26 11:33:14;;;;;;;4.03;2.30;;;;;;;;;;4823358;29;20045;-85
2022/04/26 11:35:41;;;;;;;4.97;2.53;;;;;;;;;;4820051;29;20505;-82
2022/04/26 11:38:08;;;;;;;4.63;2.00;;;;;;;;;;4823187;29;20113;-84
2022/04/26 11:40:40;;;;;;;3.35;1.90;;;;;;;;;;4822935;29;20030;-85
2022/04/26 11:43:17;;;;;;;4.82;2.78;;;;;;;;;;4821456;29;20109;-85
2022/04/26 11:45:44;;;;;;;5.47;2.50;;;;;;;;;;4821524;29;20034;-81
2022/04/26 11:48:12;;;;;;;4.25;2.05;;;;;;;;;;4820366;29;20071;-76
2022/04/26 11:50:38;;;;;;;3.50;2.45;;;;;;;;;;4823418;29;20049;-84
2022/04/26 11:53:11;;;;;;;3.88;2.55;;;;;;;;;;4808273;29;20042;-90
2022/04/26 11:55:38;;;;;;;3.40;2.70;;;;;;;;;;4820931;29;20113;-74
2022/04/26 11:58:06;;;;;;;6.82;2.92;;;;;;;;;;4822756;29;20057;-75
2022/04/26 12:00:33;;;;;;;6.82;3.13;;;;;;;;;;4821907;29;20038;-76
2022/04/26 12:03:00;;;;;;;8.27;3.42;;;;;;;;;;4821912;29;20097;-74
2022/04/26 12:05:32;;;;;;;8.57;2.85;;;;;;;;;;4823048;29;20026;-92
2022/04/26 12:08:12;;;;;;;6.95;3.42;;;;;;;;;;4826191;29;20046;-86
2022/04/26 12:10:47;;;;;;;4.32;2.83;;;;;;;;;;4875782;29;20032;-91
2022/04/26 12:13:43;;;;;;;3.60;2.60;;;;;;;;;;4918459;29;20033;-91
2022/04/26 12:16:17;;;;;;;6.10;2.63;;;;;;;;;;4901441;29;20513;-76
2022/04/26 12:18:51;;;;;;;6.20;2.60;;;;;;;;;;4917668;29;20055;-82
2022/04/26 12:21:17;;;;;;;6.97;3.22;;;;;;;;;;4898680;29;20020;-87
2022/04/26 12:23:43;;;;;;;9.60;3.22;;;;;;;;;;4899299;29;20028;-82
2022/04/26 12:26:10;;;;;;;7.70;3.30;;;;;;;;;;4917464;29;20056;-80
2022/04/26 12:28:46;;;;;;;7.32;3.00;;;;;;;;;;4913720;29;20040;-81
2022/04/26 12:31:26;;;;;;;8.93;2.58;;;;;;;;;;4900831;29;20035;-79
2022/04/26 12:34:12;;;;;;;4.75;2.30;;;;;;;;;;4911428;29;20418;-78
2022/04/26 12:36:57;;;;;;;2.72;1.90;;;;;;;;;;4916994;29;20119;-80
2022/04/26 12:39:23;;;;;;;9.05;3.00;;;;;;;;;;4916479;29;20122;-79
2022/04/26 12:41:51;;;;;;;5.55;2.33;;;;;;;;;;4916629;29;20099;-78
2022/04/26 12:44:17;;;;;;;6.85;2.10;;;;;;;;;;4916756;29;20112;-78
2022/04/26 12:46:47;;;;;;;3.63;1.90;;;;;;;;;;4916931;29;20051;-83
2022/04/26 12:51:58;;;;;;;3.72;2.30;;;;;;;;;;4910797;29;20099;-80
2022/04/26 12:54:24;;;;;;;5.50;2.03;;;;;;;;;;4916592;29;20035;-82
2022/04/26 12:56:58;;;;;;;5.45;2.10;;;;;;;;;;4917849;29;20443;-82
2022/04/26 12:59:24;;;;;;;4.03;2.22;;;;;;;;;;4917134;29;20103;-77
2022/04/26 13:01:50;;;;;;;3.35;2.35;;;;;;;;;;4916582;29;20024;-82
2022/04/26 13:04:19;;;;;;;2.60;1.90;;;;;;;;;;4916997;29;20070;-84
2022/04/26 13:06:48;;;;;;;3.92;2.00;;;;;;;;;;4916860;29;20051;-79
2022/04/26 13:09:15;;;;;;;4.15;2.17;;;;;;;;;;4917335;29;20028;-82
2022/04/26 13:11:43;;;;;;;4.45;1.88;;;;;;;;;;4917409;29;20537;-85
2022/04/26 13:14:09;;;;;;;3.83;1.55;;;;;;;;;;4897877;29;20028;-87
2022/04/26 13:16:35;;;;;;;2.30;1.50;;;;;;;;;;4899985;29;20059;-81
2022/04/26 13:19:01;;;;;;;9.77;3.10;;;;;;;;;;4917295;29;20071;-84
2022/04/26 13:21:27;;;;;;;3.50;1.95;;;;;;;;;;4890107;29;20024;-87
2022/04/26 13:23:57;;;;;;;3.63;1.80;;;;;;;;;;4900001;29;20035;-80
2022/04/26 13:26:26;;;;;;;8.90;2.30;;;;;;;;;;4899046;29;20084;-84
2022/04/26 13:28:52;;;;;;;7.85;2.10;;;;;;;;;;4898944;29;20060;-87
2022/04/26 13:31:18;;;;;;;3.40;2.05;;;;;;;;;;4916535;29;20020;-86
2022/04/26 13:33:45;;;;;;;2.95;2.00;;;;;;;;;;4897376;29;20048;-87
2022/04/26 13:36:11;;;;;;;4.43;2.20;;;;;;;;;;4900942;29;20063;-85
2022/04/26 13:38:38;;;;;;;8.82;2.58;;;;;;;;;;4898930;29;20529;-84
2022/04/26 13:41:04;;;;;;;3.35;2.20;;;;;;;;;;4914910;29;20036;-86
2022/04/26 13:43:30;;;;;;;10.55;3.25;;;;;;;;;;4915643;29;20058;-91
2022/04/26 13:45:56;;;;;;;8.00;3.00;;;;;;;;;;4898477;29;20034;-85
2022/04/26 13:48:22;;;;;;;5.70;2.70;;;;;;;;;;4903920;29;20039;-78
2022/04/26 13:50:48;;;;;;;6.63;2.63;;;;;;;;;;4899115;29;20115;-89
2022/04/26 13:53:14;;;;;;;9.02;2.90;;;;;;;;;;4913435;29;20032;-87
2022/04/26 13:55:40;;;;;;;5.43;2.80;;;;;;;;;;4913894;29;20036;-89
2022/04/26 13:58:09;;;;;;;5.25;2.50;;;;;;;;;;4895866;29;20047;-85
2022/04/26 14:00:36;;;;;;;5.20;2.30;;;;;;;;;;4898346;29;20047;-87
2022/04/26 14:03:02;;;;;;;5.38;2.10;;;;;;;;;;4912504;29;21591;-79
2022/04/26 14:05:28;;;;;;;4.93;2.42;;;;;;;;;;4914918;29;20032;-86
2022/04/26 14:07:54;;;;;;;7.40;2.63;;;;;;;;;;4902801;29;20024;-90
2022/04/26 14:10:21;;;;;;;7.43;2.90;;;;;;;;;;4895900;29;20164;-89
2022/04/26 14:12:47;;;;;;;5.90;2.75;;;;;;;;;;4896753;29;20410;-90
2022/04/26 14:23:30;;;;;;;4.18;2.42;;;;;;;;;;4911832;29;20047;-89
2022/04/26 14:25:56;;;;;;;6.07;2.30;;;;;;;;;;4920873;29;20028;-89
2022/04/26 14:28:22;;;;;;;6.60;2.67;;;;;;;;;;4900601;29;20032;-90
2022/04/26 14:30:48;;;;;;;4.97;2.65;;;;;;;;;;4895388;29;20067;-89
2022/04/26 14:33:15;;;;;;;4.05;2.05;;;;;;;;;;4896094;29;20036;-90
2022/04/26 14:35:41;;;;;;;4.60;2.17;;;;;;;;;;4898343;29;20111;-80
2022/04/26 14:38:10;;;;;;;4.55;1.92;;;;;;;;;;4914550;29;20534;-78
2022/04/26 14:40:37;;;;;;;3.53;2.22;;;;;;;;;;4898964;29;20123;-89
2022/04/26 14:43:03;;;;;;;5.93;2.38;;;;;;;;;;4912996;29;20087;-86
2022/04/26 14:45:32;;;;;;;7.72;2.67;;;;;;;;;;4912004;29;20062;-82
2022/04/26 14:48:00;;;;;;;11.55;2.30;;;;;;;;;;4914517;29;20083;-78
2022/04/26 14:50:27;;;;;;;3.65;2.28;;;;;;;;;;4918197;29;20032;-78
2022/04/26 14:52:53;;;;;;;3.95;2.10;;;;;;;;;;4904995;29;20111;-87
2022/04/26 14:55:19;;;;;;;6.43;2.10;;;;;;;;;;4908793;29;20035;-89
2022/04/26 14:57:45;;;;;;;4.07;1.90;;;;;;;;;;4905830;29;20024;-88
2022/04/26 15:00:11;;;;;;;3.80;2.00;;;;;;;;;;4906391;29;20036;-88
2022/04/26 15:02:40;;;;;;;6.15;2.22;;;;;;;;;;4904027;29;20036;-86
2022/04/26 15:05:07;;;;;;;7.20;2.33;;;;;;;;;;4910243;29;20058;-87
2022/04/26 15:09:42;;;;;;;7.25;2.50;;;;;;;;;;4917798;29;20036;-82
2022/04/26 15:10:19;;;;;;;3.30;2.03;;;;;;;;;;4920023;29;20032;-84
2022/04/26 15:18:15;;;;;;;3.70;2.15;;;;;;;;;;4923326;29;20059;-79
2022/04/26 15:20:42;;;;;;;3.20;2.03;;;;;;;;;;4898558;29;20048;-84
2022/04/26 15:23:08;;;;;;;4.30;2.20;;;;;;;;;;4905267;29;20035;-86
2022/04/26 15:25:35;;;;;;;4.32;1.77;;;;;;;;;;4896417;29;20383;-83
2022/04/26 15:28:02;;;;;;;9.90;2.30;;;;;;;;;;4921269;29;20090;-86
2022/04/26 15:30:28;;;;;;;8.07;2.42;;;;;;;;;;4931852;29;20031;-88
2022/04/26 15:32:54;;;;;;;5.03;2.40;;;;;;;;;;4931060;29;20035;-87
2022/04/26 15:35:20;;;;;;;4.72;2.10;;;;;;;;;;4924688;29;20061;-80
2022/04/26 15:37:47;;;;;;;2.95;1.95;;;;;;;;;;4922756;29;20024;-91
2022/04/26 15:40:14;;;;;;;7.70;2.47;;;;;;;;;;4901856;29;20060;-90
2022/04/26 15:42:41;;;;;;;5.28;1.77;;;;;;;;;;4912098;29;20039;-92
2022/04/26 15:45:07;;;;;;;3.10;2.00;;;;;;;;;;4912121;29;20038;-83
2022/04/26 15:47:35;;;;;;;7.10;2.60;;;;;;;;;;4918596;29;20108;-75
2022/04/26 15:50:01;;;;;;;6.07;2.50;;;;;;;;;;4922599;29;20475;-76
2022/04/26 15:52:27;;;;;;;7.68;2.10;;;;;;;;;;4921934;29;20079;-80
2022/04/26 15:54:53;;;;;;;3.50;2.00;;;;;;;;;;4920877;29;20028;-78
2022/04/26 15:57:19;;;;;;;3.35;2.00;;;;;;;;;;4911914;29;20031;-80
2022/04/26 15:59:45;;;;;;;3.45;1.98;;;;;;;;;;4913510;29;20058;-88
2022/04/26 16:02:11;;;;;;;3.63;1.90;;;;;;;;;;4907331;29;20070;-88
2022/04/26 16:04:37;;;;;;;7.25;2.42;;;;;;;;;;4901736;29;20130;-81
2022/04/26 16:07:04;;;;;;;7.88;2.20;;;;;;;;;;4916036;29;20040;-74
2022/04/26 16:20:29;;;;;;;5.80;2.13;;;;;;;;;;4918406;29;20047;-75
2022/04/26 16:22:55;;;;;;;7.82;2.80;;;;;;;;;;4914966;29;20024;-75
2022/04/26 16:25:21;;;;;;;11.95;2.92;;;;;;;;;;4911838;29;20522;-75
2022/04/26 16:27:49;;;;;;;6.95;2.50;;;;;;;;;;4905125;29;20486;-75
2022/04/26 16:30:15;;;;;;;6.05;2.80;;;;;;;;;;4900773;29;20024;-75
2022/04/26 16:32:41;;;;;;;3.90;2.30;;;;;;;;;;4899053;29;20073;-75
2022/04/26 16:35:08;;;;;;;5.22;2.38;;;;;;;;;;4899827;29;20025;-76
2022/04/26 16:37:34;;;;;;;4.43;2.00;;;;;;;;;;4885316;29;20055;-75
2022/04/26 16:40:00;;;;;;;7.00;2.88;;;;;;;;;;4905127;29;20431;-74
2022/04/26 16:42:26;;;;;;;6.10;2.38;;;;;;;;;;4917909;29;20021;-75
2022/04/26 16:44:52;;;;;;;8.60;2.42;;;;;;;;;;4917449;29;20111;-75
2022/04/26 16:47:18;;;;;;;8.30;2.30;;;;;;;;;;4917709;29;20059;-74
2022/04/26 16:49:44;;;;;;;6.35;2.00;;;;;;;;;;4918472;29;20020;-75
2022/04/26 16:52:11;;;;;;;2.60;1.90;;;;;;;;;;4918050;29;20104;-75
2022/04/26 16:54:38;;;;;;;4.25;2.05;;;;;;;;;;4918293;29;20036;-75
2022/04/26 16:57:04;;;;;;;4.22;2.20;;;;;;;;;;4917805;29;20026;-74
2022/04/26 16:59:30;;;;;;;5.15;2.05;;;;;;;;;;4916201;29;20047;-82
2022/04/26 17:04:42;;;;;;;6.70;2.28;;;;;;;;;;4919702;29;20043;-86
2022/04/26 17:07:08;;;;;;;7.47;2.33;;;;;;;;;;4896628;29;20558;-86
2022/04/26 17:09:36;;;;;;;13.27;3.35;;;;;;;;;;4900555;29;20028;-73
2022/04/26 17:12:02;;;;;;;8.35;3.13;;;;;;;;;;4918201;29;20045;-73
2022/04/26 17:14:31;;;;;;;8.25;2.55;;;;;;;;;;4920833;29;20032;-74
2022/04/26 17:17:04;;;;;;;6.97;2.70;;;;;;;;;;4918886;29;20513;-81
2022/04/26 17:19:30;;;;;;;5.20;2.50;;;;;;;;;;4918026;29;20051;-85
2022/04/26 17:21:56;;;;;;;8.40;3.08;;;;;;;;;;4911651;29;20020;-84
2022/04/26 17:27:08;;;;;;;26.30;9.48;;;;;;;;;;4916048;29;20044;-87
2022/04/26 17:29:35;;;;;;;29.65;11.05;;;;;;;;;;4903053;29;20486;-84
2022/04/26 17:32:04;;;;;;;44.33;10.07;;;;;;;;;;4883814;29;20028;-84
2022/04/26 17:34:30;;;;;;;38.35;13.48;;;;;;;;;;4918466;29;20490;-87
2022/04/26 17:36:57;;;;;;;36.15;13.13;;;;;;;;;;4918061;29;20036;-86
2022/04/26 17:39:28;;;;;;;44.05;14.68;;;;;;;;;;4912695;29;20032;-73
2022/04/26 17:42:08;;;;;;;30.42;9.20;;;;;;;;;;4916172;29;20040;-81
2022/04/26 17:44:37;;;;;;;24.40;8.73;;;;;;;;;;4914761;29;20028;-74
2022/04/26 17:47:04;;;;;;;19.55;6.82;;;;;;;;;;4915202;29;20394;-74
2022/04/26 17:49:31;;;;;;;14.20;6.35;;;;;;;;;;4915321;29;20524;-75
2022/04/26 17:51:57;;;;;;;14.48;5.32;;;;;;;;;;4916790;29;20463;-75
2022/04/26 17:57:08;;;;;;;14.68;4.70;;;;;;;;;;4917706;29;20538;-73
2022/04/26 17:59:34;;;;;;;17.25;5.30;;;;;;;;;;4916639;29;20032;-74
2022/04/26 18:02:00;;;;;;;12.73;4.40;;;;;;;;;;4917137;29;20028;-74
2022/04/26 18:04:26;;;;;;;10.93;4.18;;;;;;;;;;4916915;29;20443;-74
2022/04/26 18:06:52;;;;;;;10.05;4.55;;;;;;;;;;4916997;29;20071;-74
2022/04/26 18:09:18;;;;;;;11.88;4.53;;;;;;;;;;4916661;29;20071;-74
2022/04/26 18:11:45;;;;;;;10.32;3.50;;;;;;;;;;4917258;29;20046;-74
2022/04/26 18:14:13;;;;;;;8.00;3.80;;;;;;;;;;4916813;29;20051;-74
2022/04/26 18:16:39;;;;;;;10.27;3.90;;;;;;;;;;4905559;29;20041;-74
2022/04/26 18:19:07;;;;;;;9.73;3.72;;;;;;;;;;4915017;29;20040;-74
2022/04/26 18:21:33;;;;;;;12.70;3.75;;;;;;;;;;4908573;29;20024;-74
2022/04/26 18:24:00;;;;;;;9.82;3.78;;;;;;;;;;4911612;29;20106;-74
2022/04/26 18:26:26;;;;;;;9.70;3.70;;;;;;;;;;4916751;29;20035;-74
2022/04/26 18:28:53;;;;;;;9.68;3.63;;;;;;;;;;4916535;29;20242;-74
2022/04/26 18:31:20;;;;;;;9.30;3.63;;;;;;;;;;4917118;29;20176;-75
2022/04/26 18:33:52;;;;;;;9.27;3.75;;;;;;;;;;4916796;29;20024;-74
2022/04/26 18:36:19;;;;;;;7.72;3.90;;;;;;;;;;4916533;29;20032;-75
2022/04/26 18:38:48;;;;;;;7.45;4.05;;;;;;;;;;4916811;29;20039;-74
2022/04/26 18:41:14;;;;;;;7.30;4.00;;;;;;;;;;4899761;29;20368;-74
2022/04/26 18:43:40;;;;;;;7.25;3.92;;;;;;;;;;4917020;29;20386;-75
2022/04/26 18:46:07;;;;;;;5.53;3.45;;;;;;;;;;4916873;29;20032;-74
2022/04/26 18:48:34;;;;;;;13.20;7.80;;;;;;;;;;4916526;29;20028;-75
2022/04/26 18:51:00;;;;;;;15.10;6.93;;;;;;;;;;4916221;29;20031;-74
2022/04/26 18:53:26;;;;;;;11.02;5.00;;;;;;;;;;4916768;29;20029;-75
2022/04/26 18:55:53;;;;;;;14.88;7.55;;;;;;;;;;4916625;29;20031;-75
2022/04/26 18:58:20;;;;;;;19.63;9.23;;;;;;;;;;4916648;29;20020;-75
2022/04/26 19:00:50;;;;;;;17.33;8.55;;;;;;;;;;4916282;29;20020;-75
2022/04/26 19:03:16;;;;;;;14.45;7.85;;;;;;;;;;4916525;29;20046;-75
2022/04/26 19:05:46;;;;;;;13.52;6.95;;;;;;;;;;4916221;29;20051;-74
2022/04/26 19:08:13;;;;;;;11.30;5.88;;;;;;;;;;4916262;29;20489;-74
2022/04/26 19:13:26;;;;;;;10.65;5.60;;;;;;;;;;4916309;29;20035;-75
2022/04/26 19:15:55;;;;;;;6.28;4.60;;;;;;;;;;4915898;29;20028;-74
2022/04/26 19:18:22;;;;;;;6.53;4.32;;;;;;;;;;4916270;29;20440;-74
2022/04/26 19:20:48;;;;;;;7.97;4.40;;;;;;;;;;4916742;29;20066;-75